Time;durP1;ratioP1;P1;durP2;ratioP2;P2;SDS_P1;SDS_P2;PMS_P1;PMS_P2;Temp;Humidity;BMP_temperature;BMP_pressure;BME280_temperature;BME280_humidity;BME280_pressure;Samples;Min_cycle;Max_cycle;Signal;HPM_P1;HPM_P2
2023/04/30 00:01:46;;;;;;;4.80;2.57;;;;;;;19.01;43.01;102241.16;5022200;28;20025;-71
2023/04/30 00:04:11;;;;;;;4.50;2.40;;;;;;;18.99;43.00;102246.53;5021640;28;20332;-70
2023/04/30 00:06:36;;;;;;;4.32;2.50;;;;;;;18.97;43.02;102231.72;5022135;28;20286;-70
2023/04/30 00:09:02;;;;;;;4.15;2.40;;;;;;;18.97;42.97;102240.47;5021597;28;20116;-70
2023/04/30 00:11:27;;;;;;;4.13;2.65;;;;;;;18.98;43.01;102244.00;5021370;28;20037;-70
2023/04/30 00:13:53;;;;;;;4.80;2.60;;;;;;;18.98;43.03;102238.72;5020208;28;20029;-71
2023/04/30 00:16:18;;;;;;;5.22;2.65;;;;;;;18.95;42.96;102237.09;5021886;28;20029;-70
2023/04/30 00:18:43;;;;;;;5.32;2.60;;;;;;;18.97;42.65;102244.94;5021382;28;20044;-69
2023/04/30 00:21:09;;;;;;;4.45;2.75;;;;;;;18.95;43.02;102244.19;5021550;28;20083;-69
2023/04/30 00:23:34;;;;;;;3.97;2.40;;;;;;;18.93;42.97;102243.41;5021295;28;20045;-69
2023/04/30 00:26:00;;;;;;;4.57;2.85;;;;;;;18.93;42.93;102243.41;5021435;28;20125;-69
2023/04/30 00:28:26;;;;;;;6.25;2.97;;;;;;;18.95;42.93;102257.38;5021421;28;20030;-71
2023/04/30 00:30:51;;;;;;;5.10;2.63;;;;;;;18.93;42.58;102254.84;5021701;28;20033;-71
2023/04/30 00:33:16;;;;;;;4.47;2.80;;;;;;;18.93;42.98;102249.56;5021245;28;20029;-70
2023/04/30 00:35:41;;;;;;;4.37;2.77;;;;;;;18.91;42.61;102247.94;5021605;28;20781;-69
2023/04/30 00:38:07;;;;;;;4.35;2.50;;;;;;;18.90;43.07;102240.94;5021329;28;20276;-71
2023/04/30 00:40:36;;;;;;;5.00;2.75;;;;;;;18.86;42.90;102240.31;5020880;28;20064;-71
2023/04/30 00:43:02;;;;;;;4.68;2.45;;;;;;;18.92;42.90;102245.22;5019865;28;20041;-71
2023/04/30 00:45:28;;;;;;;6.03;2.72;;;;;;;18.92;42.85;102253.13;5021143;28;20056;-68
2023/04/30 00:47:53;;;;;;;4.50;2.55;;;;;;;18.88;42.79;102243.69;5021057;28;20079;-70
2023/04/30 00:50:19;;;;;;;4.75;2.58;;;;;;;18.87;42.88;102255.22;5021112;28;20599;-71
2023/04/30 00:52:44;;;;;;;4.22;2.47;;;;;;;18.87;42.84;102249.94;5021077;28;20037;-69
2023/04/30 00:55:12;;;;;;;5.30;2.75;;;;;;;18.87;42.76;102249.94;5020987;28;20084;-72
2023/04/30 00:57:39;;;;;;;4.95;2.50;;;;;;;18.87;42.82;102244.66;5021270;28;20359;-69
2023/04/30 01:00:09;;;;;;;5.32;2.67;;;;;;;18.88;42.74;102242.84;5020882;28;20087;-68
2023/04/30 01:02:35;;;;;;;5.60;3.00;;;;;;;18.83;42.77;102241.34;5019753;28;20034;-71
2023/04/30 01:05:02;;;;;;;5.40;2.85;;;;;;;18.85;42.80;102250.03;5021274;28;20038;-69
2023/04/30 01:07:28;;;;;;;6.35;2.70;;;;;;;18.86;42.69;102242.94;5020708;28;20470;-71
2023/04/30 01:09:53;;;;;;;5.72;3.00;;;;;;;18.87;42.69;102243.78;5020796;28;20040;-71
2023/04/30 01:12:42;;;;;;;6.47;2.63;;;;;;;18.85;42.64;102241.28;5020708;28;20045;-72
2023/04/30 01:15:45;;;;;;;5.47;2.90;;;;;;;18.84;42.61;102229.84;5020842;28;20041;-71
2023/04/30 01:18:24;;;;;;;4.78;2.80;;;;;;;18.84;42.82;102235.13;5020157;28;20060;-70
2023/04/30 01:20:54;;;;;;;5.72;2.63;;;;;;;18.81;42.49;102230.00;5020648;28;20175;-71
2023/04/30 01:23:32;;;;;;;4.63;2.60;;;;;;;18.82;42.63;102236.16;5020569;28;20515;-69
2023/04/30 01:26:12;;;;;;;4.68;2.72;;;;;;;18.81;42.64;102237.91;5021071;28;20048;-71
2023/04/30 01:28:39;;;;;;;4.93;2.90;;;;;;;18.81;42.56;102240.56;5019529;28;20029;-69
2023/04/30 01:31:12;;;;;;;5.55;2.60;;;;;;;18.81;42.53;102239.72;5020797;28;20055;-68
2023/04/30 01:33:37;;;;;;;5.53;2.90;;;;;;;18.82;42.56;102236.97;5021021;28;20030;-69
2023/04/30 01:36:33;;;;;;;5.03;2.58;;;;;;;18.80;42.65;102238.00;5019126;28;20612;-69
2023/04/30 01:39:08;;;;;;;7.05;2.90;;;;;;;18.80;42.35;102238.00;5020403;28;20171;-68
2023/04/30 01:41:55;;;;;;;4.82;2.47;;;;;;;18.78;42.46;102240.75;5020380;28;20042;-69
2023/04/30 01:44:53;;;;;;;4.90;2.90;;;;;;;18.78;42.51;102235.47;5020550;28;20034;-71
2023/04/30 01:47:47;;;;;;;5.05;2.38;;;;;;;18.77;42.58;102239.06;5020302;28;20370;-71
2023/04/30 01:50:18;;;;;;;5.55;3.05;;;;;;;18.77;42.38;102246.13;5020338;28;20051;-70
2023/04/30 01:52:56;;;;;;;4.30;2.47;;;;;;;18.76;42.53;102240.00;5023835;28;20037;-70
2023/04/30 01:55:41;;;;;;;5.38;2.45;;;;;;;18.75;42.43;102246.22;5024211;28;20505;-68
2023/04/30 01:58:11;;;;;;;5.18;2.65;;;;;;;18.76;42.39;102239.16;5024062;28;20037;-68
2023/04/30 02:00:36;;;;;;;5.30;2.78;;;;;;;18.75;42.41;102242.75;5022775;28;20080;-69
2023/04/30 02:03:01;;;;;;;4.70;2.58;;;;;;;18.73;42.14;102236.72;5024005;28;20124;-70
2023/04/30 02:05:27;;;;;;;5.68;2.42;;;;;;;18.71;42.45;102242.09;5023858;28;20037;-70
2023/04/30 02:07:53;;;;;;;5.85;2.50;;;;;;;18.73;42.42;102245.47;5023937;28;20123;-68
2023/04/30 02:10:21;;;;;;;4.43;2.65;;;;;;;18.71;42.34;102244.72;5024041;28;20461;-70
2023/04/30 02:12:47;;;;;;;4.68;2.50;;;;;;;18.72;42.51;102249.03;5023524;28;20037;-69
2023/04/30 02:15:12;;;;;;;4.60;2.70;;;;;;;18.71;42.40;102250.00;5023841;28;20045;-69
2023/04/30 02:17:38;;;;;;;4.20;2.50;;;;;;;18.71;42.57;102246.50;5023837;28;20048;-70
2023/04/30 02:20:04;;;;;;;4.65;2.63;;;;;;;18.71;42.44;102255.28;5023463;28;20087;-70
2023/04/30 02:22:29;;;;;;;5.20;3.00;;;;;;;18.68;41.90;102245.75;5023575;28;20107;-72
2023/04/30 02:24:56;;;;;;;5.15;2.60;;;;;;;18.70;42.29;102255.38;5023672;28;20033;-69
2023/04/30 02:27:22;;;;;;;4.55;2.50;;;;;;;18.67;42.39;102252.00;5023706;28;20034;-69
2023/04/30 02:29:48;;;;;;;5.35;3.15;;;;;;;18.66;42.31;102249.44;5023700;28;20104;-70
2023/04/30 02:32:13;;;;;;;4.47;2.75;;;;;;;18.67;42.26;102254.63;5023688;28;20128;-71
2023/04/30 02:34:39;;;;;;;4.28;2.30;;;;;;;18.66;42.20;102257.38;5023582;28;20042;-69
2023/04/30 02:37:05;;;;;;;4.80;2.53;;;;;;;18.66;42.31;102250.28;5023509;28;20032;-70
2023/04/30 02:39:30;;;;;;;4.95;2.72;;;;;;;18.65;42.19;102247.75;5023210;28;20036;-69
2023/04/30 02:41:55;;;;;;;4.00;2.43;;;;;;;18.65;42.52;102250.38;5023295;28;20035;-68
2023/04/30 02:44:20;;;;;;;4.03;2.47;;;;;;;18.66;42.38;102249.44;5023607;28;20799;-70
2023/04/30 02:46:46;;;;;;;4.77;2.67;;;;;;;18.62;42.22;102243.50;5023056;28;20282;-68
2023/04/30 02:49:11;;;;;;;4.60;2.67;;;;;;;18.64;42.14;102252.19;5023108;28;20273;-70
2023/04/30 02:51:36;;;;;;;5.05;2.80;;;;;;;18.62;42.39;102245.28;5022946;28;20819;-69
2023/04/30 02:54:01;;;;;;;4.40;2.90;;;;;;;18.62;42.12;102238.22;5022133;28;20040;-69
2023/04/30 02:56:27;;;;;;;5.03;2.80;;;;;;;18.62;42.15;102242.66;5023109;28;20313;-71
2023/04/30 02:58:52;;;;;;;3.90;2.40;;;;;;;18.62;42.04;102250.56;5022930;28;20474;-68
2023/04/30 03:01:18;;;;;;;5.20;2.80;;;;;;;18.61;42.18;102244.44;5022774;28;20029;-69
2023/04/30 03:03:43;;;;;;;5.97;2.30;;;;;;;18.60;42.36;102241.91;5022243;28;20029;-69
2023/04/30 03:06:08;;;;;;;4.57;2.72;;;;;;;18.62;42.16;102242.66;5022570;28;20524;-70
2023/04/30 03:08:34;;;;;;;4.20;2.45;;;;;;;18.62;42.36;102240.84;5022896;28;20037;-70
2023/04/30 03:10:59;;;;;;;4.35;2.70;;;;;;;18.62;42.32;102235.56;5021170;28;20470;-70
2023/04/30 03:13:25;;;;;;;4.28;2.42;;;;;;;18.63;42.22;102234.63;5022717;28;20034;-69
2023/04/30 03:15:59;;;;;;;4.20;2.25;;;;;;;18.61;42.27;102230.38;5022841;28;20129;-69
2023/04/30 03:18:25;;;;;;;4.63;2.67;;;;;;;18.61;42.20;102227.72;5022822;28;20088;-70
2023/04/30 03:20:50;;;;;;;5.03;2.63;;;;;;;18.61;42.18;102230.38;5022358;28;20120;-69
2023/04/30 03:23:16;;;;;;;5.27;2.53;;;;;;;18.63;42.07;102228.50;5022642;28;20136;-70
2023/04/30 03:25:41;;;;;;;4.45;2.63;;;;;;;18.61;42.11;102235.66;5022131;28;20258;-71
2023/04/30 03:28:06;;;;;;;4.95;2.70;;;;;;;18.61;42.08;102233.88;5022469;28;20037;-69
2023/04/30 03:30:31;;;;;;;4.80;2.63;;;;;;;18.58;41.95;102228.78;5022341;28;20029;-70
2023/04/30 03:32:57;;;;;;;4.85;2.80;;;;;;;18.61;42.01;102231.25;5022453;28;20523;-69
2023/04/30 03:35:22;;;;;;;4.03;2.47;;;;;;;18.57;42.05;102224.44;5022388;28;20036;-71
2023/04/30 03:37:47;;;;;;;4.82;2.58;;;;;;;18.55;41.74;102223.69;5022480;28;20798;-70
2023/04/30 03:40:13;;;;;;;4.38;2.50;;;;;;;18.58;41.74;102234.06;5021925;28;20041;-70
2023/04/30 03:42:38;;;;;;;4.30;2.25;;;;;;;18.57;41.56;102231.53;5022234;28;20033;-69
2023/04/30 03:45:03;;;;;;;5.80;2.50;;;;;;;18.56;41.98;102229.81;5022019;28;20033;-70
2023/04/30 03:47:29;;;;;;;5.78;2.88;;;;;;;18.55;41.95;102236.91;5022131;28;20829;-70
2023/04/30 03:49:54;;;;;;;4.30;2.40;;;;;;;18.54;41.79;102232.56;5020560;28;20044;-69
2023/04/30 03:52:21;;;;;;;3.78;2.30;;;;;;;18.55;41.79;102236.03;5022374;28;20399;-69
2023/04/30 03:54:46;;;;;;;4.63;2.50;;;;;;;18.54;42.03;102234.34;5022072;28;20141;-70
2023/04/30 03:57:12;;;;;;;4.15;2.50;;;;;;;18.53;41.87;102237.91;5021823;28;20048;-69
2023/04/30 03:59:38;;;;;;;4.20;2.50;;;;;;;18.54;41.78;102237.00;5022019;28;20037;-70
2023/04/30 04:02:05;;;;;;;5.97;2.60;;;;;;;18.54;42.06;102252.84;5021957;28;20083;-68
2023/04/30 04:04:30;;;;;;;4.00;2.38;;;;;;;18.50;41.80;102252.19;5021782;28;20038;-70
2023/04/30 04:06:56;;;;;;;4.68;2.70;;;;;;;18.52;41.89;102254.69;5020833;28;20041;-69
2023/04/30 04:09:21;;;;;;;5.22;2.50;;;;;;;18.51;42.03;102255.66;5022001;28;20087;-70
2023/04/30 04:11:47;;;;;;;4.95;2.53;;;;;;;18.49;41.92;102251.31;5021626;28;20033;-71
2023/04/30 04:14:12;;;;;;;3.50;2.08;;;;;;;18.48;41.94;102259.31;5019757;28;20102;-69
2023/04/30 04:16:37;;;;;;;4.60;2.35;;;;;;;18.49;41.65;102255.75;5021674;28;20136;-69
2023/04/30 04:19:03;;;;;;;6.32;2.65;;;;;;;18.49;41.91;102259.22;5021613;28;20552;-71
2023/04/30 04:21:28;;;;;;;4.43;2.50;;;;;;;18.49;41.75;102255.75;5021382;28;20064;-70
2023/04/30 04:23:54;;;;;;;5.15;2.55;;;;;;;18.49;41.73;102263.66;5021576;28;20124;-70
2023/04/30 04:26:20;;;;;;;4.30;2.78;;;;;;;18.47;41.65;102260.28;5021361;28;20405;-69
2023/04/30 04:28:46;;;;;;;4.35;2.55;;;;;;;18.44;41.63;102260.47;5020790;28;20033;-69
2023/04/30 04:31:12;;;;;;;4.85;2.55;;;;;;;18.45;41.82;102257.72;5021300;28;20087;-71
2023/04/30 04:33:37;;;;;;;4.28;2.70;;;;;;;18.44;41.69;102258.66;5021572;28;20401;-70
2023/04/30 04:36:02;;;;;;;4.72;2.85;;;;;;;18.45;41.68;102260.38;5021612;28;20108;-69
2023/04/30 04:38:28;;;;;;;5.07;3.00;;;;;;;18.45;41.76;102257.72;5020937;28;20466;-72
2023/04/30 04:40:55;;;;;;;5.03;2.35;;;;;;;18.44;41.81;102257.81;5019927;28;20060;-70
2023/04/30 04:43:21;;;;;;;4.38;2.35;;;;;;;18.46;41.82;102269.13;5021291;28;20045;-70
2023/04/30 04:45:49;;;;;;;4.18;2.40;;;;;;;18.44;42.04;102266.59;5021070;28;20045;-68
2023/04/30 04:48:14;;;;;;;4.32;2.30;;;;;;;18.45;42.04;102270.94;5020067;28;20043;-70
2023/04/30 04:50:40;;;;;;;4.22;2.60;;;;;;;18.47;41.93;102276.13;5020779;28;20462;-70
2023/04/30 04:53:05;;;;;;;4.40;2.60;;;;;;;18.48;41.79;102277.78;5019045;28;20029;-70
2023/04/30 04:55:31;;;;;;;5.00;2.75;;;;;;;18.47;41.87;102276.97;5020986;28;20076;-70
2023/04/30 04:57:56;;;;;;;5.80;2.63;;;;;;;18.41;41.82;102265.94;5020930;28;20704;-71
2023/04/30 05:00:21;;;;;;;4.70;2.65;;;;;;;18.45;41.95;102280.63;5020721;28;20045;-69
2023/04/30 05:02:47;;;;;;;5.88;2.88;;;;;;;18.46;41.90;102274.41;5020949;28;20033;-70
2023/04/30 05:05:12;;;;;;;5.13;2.40;;;;;;;18.43;41.81;102264.88;5021313;28;20048;-70
2023/04/30 05:07:37;;;;;;;4.50;2.40;;;;;;;18.44;41.92;102265.75;5020816;28;20033;-70
2023/04/30 05:10:03;;;;;;;3.90;2.35;;;;;;;18.44;41.85;102271.03;5020696;28;20270;-69
2023/04/30 05:12:28;;;;;;;4.25;2.40;;;;;;;18.40;42.04;102267.69;5020777;28;20448;-68
2023/04/30 05:14:53;;;;;;;3.80;1.98;;;;;;;18.40;42.46;102269.50;5020743;28;20120;-69
2023/04/30 05:17:19;;;;;;;4.47;2.15;;;;;;;18.42;42.23;102272.88;5020904;28;20049;-70
2023/04/30 05:19:46;;;;;;;8.25;2.30;;;;;;;18.42;42.31;102268.47;5020871;28;20541;-72
2023/04/30 05:22:11;;;;;;;4.43;1.77;;;;;;;18.46;42.30;102266.50;5020429;28;20375;-73
2023/04/30 05:24:37;;;;;;;3.47;2.00;;;;;;;18.47;42.31;102269.03;5020939;28;20061;-68
2023/04/30 05:27:03;;;;;;;3.87;1.90;;;;;;;18.53;42.28;102266.97;5030528;28;20032;-69
2023/04/30 05:29:29;;;;;;;4.57;1.88;;;;;;;18.55;42.25;102262.44;5024210;28;20270;-69
2023/04/30 05:31:54;;;;;;;4.03;1.90;;;;;;;18.62;42.13;102264.59;5024797;28;20466;-71
2023/04/30 05:34:20;;;;;;;3.25;1.75;;;;;;;18.63;42.08;102257.56;5024820;28;20084;-70
2023/04/30 05:36:45;;;;;;;3.58;2.00;;;;;;;18.66;42.06;102265.28;5024734;28;20195;-70
2023/04/30 05:39:10;;;;;;;3.78;1.75;;;;;;;18.71;42.05;102267.63;5024989;28;20026;-72
2023/04/30 05:41:36;;;;;;;3.58;1.90;;;;;;;18.74;41.94;102267.44;5024436;28;20474;-69
2023/04/30 05:44:03;;;;;;;4.10;1.90;;;;;;;18.76;41.96;102269.06;5024051;28;20064;-69
2023/04/30 05:46:29;;;;;;;3.30;1.60;;;;;;;18.82;41.98;102278.41;5024806;28;20501;-69
2023/04/30 05:48:54;;;;;;;3.47;1.58;;;;;;;18.83;42.09;102265.09;5024438;28;20057;-71
2023/04/30 05:51:19;;;;;;;2.78;1.50;;;;;;;18.85;42.01;102270.31;5024430;28;20037;-71
2023/04/30 05:53:45;;;;;;;3.10;1.60;;;;;;;18.89;41.89;102278.91;5024487;28;20041;-70
2023/04/30 05:56:11;;;;;;;2.95;1.70;;;;;;;18.91;41.86;102277.00;5024346;28;20064;-69
2023/04/30 05:58:36;;;;;;;3.58;1.52;;;;;;;18.91;41.88;102277.84;5023964;28;20116;-69
2023/04/30 06:01:02;;;;;;;3.20;1.50;;;;;;;18.94;42.02;102274.19;5024084;28;20116;-70
2023/04/30 06:03:27;;;;;;;3.40;1.50;;;;;;;18.97;41.93;102276.63;5024001;28;20116;-71
2023/04/30 06:05:53;;;;;;;3.28;1.48;;;;;;;18.97;41.72;102271.34;5024027;28;20537;-71
2023/04/30 06:08:18;;;;;;;4.18;1.60;;;;;;;19.00;41.98;102281.72;5023864;28;20045;-69
2023/04/30 06:10:43;;;;;;;3.17;1.67;;;;;;;18.99;41.72;102270.31;5023944;28;20033;-70
2023/04/30 06:13:09;;;;;;;3.40;1.67;;;;;;;18.99;41.72;102261.53;5022325;28;20532;-68
2023/04/30 06:15:34;;;;;;;3.92;1.92;;;;;;;19.03;41.77;102269.16;5023786;28;20026;-70
2023/04/30 06:18:00;;;;;;;3.05;1.50;;;;;;;19.02;41.63;102269.25;5024155;28;20095;-69
2023/04/30 06:20:26;;;;;;;3.10;1.60;;;;;;;19.03;41.56;102273.59;5023686;28;20244;-70
2023/04/30 06:22:51;;;;;;;2.45;1.40;;;;;;;19.05;41.74;102270.88;5023652;28;20041;-70
2023/04/30 06:25:17;;;;;;;3.05;1.40;;;;;;;19.03;41.85;102263.03;5023700;28;20087;-69
2023/04/30 06:27:42;;;;;;;3.00;1.40;;;;;;;19.03;41.75;102258.59;5023499;28;20029;-70
2023/04/30 06:30:08;;;;;;;3.47;1.50;;;;;;;19.04;41.64;102259.44;5023214;28;20037;-70
2023/04/30 06:32:33;;;;;;;3.58;1.63;;;;;;;19.06;41.63;102268.13;5023978;28;20037;-70
2023/04/30 06:34:59;;;;;;;2.70;1.40;;;;;;;19.07;41.70;102272.44;5023517;28;20073;-68
2023/04/30 06:37:24;;;;;;;2.88;1.40;;;;;;;19.08;41.70;102268.03;5022514;28;20056;-70
2023/04/30 06:39:50;;;;;;;3.22;1.50;;;;;;;19.07;41.72;102264.53;5022768;28;20401;-69
2023/04/30 06:42:15;;;;;;;3.15;1.38;;;;;;;19.08;41.72;102268.03;5023379;28;20025;-69
2023/04/30 06:44:41;;;;;;;3.80;1.65;;;;;;;19.10;41.37;102268.78;5023268;28;20041;-71
2023/04/30 06:47:06;;;;;;;4.03;1.67;;;;;;;19.09;41.55;102269.72;5021929;28;20910;-70
2023/04/30 06:49:31;;;;;;;3.17;1.50;;;;;;;19.08;41.86;102262.75;5022284;28;20533;-71
2023/04/30 06:51:57;;;;;;;3.20;1.63;;;;;;;19.11;41.93;102267.84;5023845;28;20938;-70
2023/04/30 06:54:25;;;;;;;3.95;1.55;;;;;;;19.10;42.33;102272.25;5023313;28;20321;-71
2023/04/30 06:56:50;;;;;;;3.63;1.70;;;;;;;19.11;42.63;102273.97;5022945;28;20044;-70
2023/04/30 06:59:16;;;;;;;4.22;1.50;;;;;;;19.12;42.47;102272.16;5023038;28;20393;-69
2023/04/30 07:01:42;;;;;;;3.40;1.50;;;;;;;19.15;42.74;102271.97;5022844;28;20119;-70
2023/04/30 07:04:07;;;;;;;2.60;1.33;;;;;;;19.16;42.86;102277.16;5023134;28;20026;-72
2023/04/30 07:06:32;;;;;;;4.00;1.52;;;;;;;19.18;43.14;102277.06;5023107;28;20125;-69
2023/04/30 07:08:58;;;;;;;3.30;1.50;;;;;;;19.19;42.96;102274.31;5022951;28;20039;-71
2023/04/30 07:11:23;;;;;;;3.92;2.70;;;;;;;19.20;43.14;102277.81;5022470;28;20087;-69
2023/04/30 07:13:48;;;;;;;4.00;1.63;;;;;;;19.23;43.17;102276.78;5022679;28;20037;-70
2023/04/30 07:16:15;;;;;;;4.90;1.77;;;;;;;19.22;43.33;102270.66;5022999;28;20041;-69
2023/04/30 07:18:41;;;;;;;4.95;2.03;;;;;;;19.25;43.63;102280.16;5021058;28;20029;-68
2023/04/30 07:21:07;;;;;;;3.35;1.70;;;;;;;19.24;43.68;102274.03;5017635;28;20103;-72
2023/04/30 07:23:32;;;;;;;6.07;1.80;;;;;;;19.28;43.91;102279.97;5021569;28;20403;-71
2023/04/30 07:25:58;;;;;;;3.85;1.83;;;;;;;19.28;43.67;102269.41;5022009;28;20041;-70
2023/04/30 07:28:23;;;;;;;3.97;1.92;;;;;;;19.38;43.47;102267.88;5021673;28;20033;-72
2023/04/30 07:30:48;;;;;;;3.92;1.77;;;;;;;19.40;43.39;102272.09;5021869;28;20041;-73
2023/04/30 07:33:14;;;;;;;4.30;1.90;;;;;;;19.45;43.37;102261.22;5021951;28;20152;-75
2023/04/30 07:35:39;;;;;;;4.60;1.97;;;;;;;19.50;43.42;102264.44;5021727;28;20044;-69
2023/04/30 07:38:04;;;;;;;3.10;1.88;;;;;;;19.50;43.73;102256.53;5020362;28;20354;-72
2023/04/30 07:40:30;;;;;;;5.65;2.42;;;;;;;19.53;44.17;102260.75;5015546;28;20044;-71
2023/04/30 07:42:55;;;;;;;7.10;2.45;;;;;;;19.56;44.67;102265.84;5014778;28;20037;-73
2023/04/30 07:45:20;;;;;;;6.40;2.65;;;;;;;19.58;45.23;102261.28;5020028;28;20224;-73
2023/04/30 07:47:46;;;;;;;8.38;2.63;;;;;;;19.62;45.21;102268.06;5018510;28;20140;-75
2023/04/30 07:50:13;;;;;;;7.20;2.90;;;;;;;19.66;45.50;102260.78;5020542;28;20885;-74
2023/04/30 07:52:39;;;;;;;5.82;2.65;;;;;;;19.68;45.40;102256.25;5013056;28;20044;-72
2023/04/30 07:55:04;;;;;;;7.63;2.50;;;;;;;19.69;45.71;102260.59;5013209;28;20411;-72
2023/04/30 07:57:30;;;;;;;6.18;2.47;;;;;;;19.70;46.00;102262.28;5014364;28;20124;-72
2023/04/30 07:59:56;;;;;;;7.68;2.92;;;;;;;19.68;45.78;102261.56;5013374;28;20030;-71
2023/04/30 08:02:21;;;;;;;5.63;3.03;;;;;;;19.70;45.87;102254.34;5016047;28;20036;-70
2023/04/30 08:04:46;;;;;;;6.03;2.58;;;;;;;19.69;45.89;102255.28;5020818;28;20037;-71
2023/04/30 08:07:14;;;;;;;8.20;3.15;;;;;;;19.70;45.61;102255.19;5020835;28;20037;-72
2023/04/30 08:09:40;;;;;;;4.65;2.38;;;;;;;19.65;46.07;102267.88;5020957;28;20470;-72
2023/04/30 08:12:05;;;;;;;5.88;2.60;;;;;;;19.66;46.23;102266.06;5019604;28;20056;-73
2023/04/30 08:14:31;;;;;;;7.22;2.83;;;;;;;19.67;45.93;102259.84;5021621;28;20083;-73
2023/04/30 08:16:58;;;;;;;6.32;2.60;;;;;;;19.68;46.16;102261.56;5021560;28;20095;-74
2023/04/30 08:19:23;;;;;;;6.00;2.42;;;;;;;19.69;45.77;102258.81;5021913;28;20026;-73
2023/04/30 08:21:49;;;;;;;6.75;2.40;;;;;;;19.70;45.90;102262.28;5019946;28;20025;-76
2023/04/30 08:24:14;;;;;;;6.10;2.53;;;;;;;19.68;45.99;102262.41;5020701;28;20072;-69
2023/04/30 08:26:40;;;;;;;6.55;2.45;;;;;;;19.69;46.01;102261.44;5019559;28;20466;-68
2023/04/30 08:29:07;;;;;;;12.45;2.88;;;;;;;19.65;45.74;102261.75;5020785;28;20053;-75
2023/04/30 08:31:33;;;;;;;8.02;3.13;;;;;;;19.65;46.32;102259.09;5020688;28;20087;-72
2023/04/30 08:33:58;;;;;;;8.02;2.60;;;;;;;19.66;46.16;102266.94;5021259;28;20025;-75
2023/04/30 08:36:23;;;;;;;7.90;2.97;;;;;;;19.61;46.10;102261.09;5019493;28;20065;-74
2023/04/30 08:38:49;;;;;;;5.47;3.10;;;;;;;19.58;46.23;102259.50;5021325;28;20084;-71
2023/04/30 08:41:17;;;;;;;4.88;2.53;;;;;;;19.55;46.19;102253.53;5021153;28;20069;-75
2023/04/30 08:43:43;;;;;;;8.07;2.13;;;;;;;19.53;46.35;102258.94;5020667;28;20047;-71
2023/04/30 08:46:11;;;;;;;6.47;2.58;;;;;;;19.48;46.46;102254.91;5020007;28;20083;-75
2023/04/30 08:48:37;;;;;;;5.68;2.50;;;;;;;19.45;46.26;102255.94;5020339;28;20436;-73
2023/04/30 08:51:03;;;;;;;6.80;2.20;;;;;;;19.48;46.17;102255.75;5020438;28;20037;-68
2023/04/30 08:53:30;;;;;;;5.60;2.55;;;;;;;19.51;46.12;102252.06;5020377;28;20116;-72
2023/04/30 08:55:56;;;;;;;5.47;2.40;;;;;;;19.48;46.11;102255.75;5020318;28;20030;-70
2023/04/30 08:58:21;;;;;;;5.03;2.10;;;;;;;19.49;45.94;102246.88;5019934;28;20033;-70
2023/04/30 09:00:47;;;;;;;5.45;2.67;;;;;;;19.48;46.10;102245.16;5019473;28;20041;-72
2023/04/30 09:03:12;;;;;;;6.88;2.50;;;;;;;19.50;45.86;102250.34;5020318;28;20041;-71
2023/04/30 09:05:39;;;;;;;5.15;2.15;;;;;;;19.48;46.05;102247.81;5020664;28;20038;-71
2023/04/30 09:08:07;;;;;;;4.53;1.80;;;;;;;19.48;45.75;102253.09;5020992;28;20033;-73
2023/04/30 09:10:33;;;;;;;7.50;2.30;;;;;;;19.44;45.80;102250.75;5020584;28;20037;-72
2023/04/30 09:13:04;;;;;;;5.95;2.22;;;;;;;19.42;46.04;102244.72;5019137;28;20071;-69
2023/04/30 09:15:31;;;;;;;6.00;2.20;;;;;;;19.48;46.14;102244.34;5020276;28;20055;-67
2023/04/30 09:18:17;;;;;;;6.63;2.33;;;;;;;19.54;45.70;102243.94;5019934;28;20075;-71
2023/04/30 09:20:57;;;;;;;6.93;2.28;;;;;;;19.63;45.77;102248.63;5019701;28;20494;-73
2023/04/30 09:23:23;;;;;;;4.35;2.10;;;;;;;19.69;45.25;102248.22;5020902;28;20176;-71
2023/04/30 09:25:48;;;;;;;4.88;2.20;;;;;;;19.71;45.08;102246.31;5020628;28;20115;-73
2023/04/30 09:28:13;;;;;;;5.53;2.45;;;;;;;19.70;45.12;102241.97;5021102;28;20470;-73
2023/04/30 09:30:40;;;;;;;4.32;1.83;;;;;;;19.68;45.17;102246.53;5020836;28;20672;-71
2023/04/30 09:33:06;;;;;;;5.20;2.20;;;;;;;19.68;44.97;102241.22;5021537;28;20087;-70
2023/04/30 09:35:33;;;;;;;4.68;2.03;;;;;;;19.66;44.97;102244.91;5020612;28;20037;-70
2023/04/30 09:38:01;;;;;;;4.47;2.22;;;;;;;19.64;45.02;102249.47;5020605;28;20044;-69
2023/04/30 09:40:40;;;;;;;3.83;1.90;;;;;;;19.57;45.14;102243.75;5019402;28;20382;-73
2023/04/30 09:43:07;;;;;;;5.93;2.08;;;;;;;19.55;45.14;102243.84;5021145;28;20033;-72
2023/04/30 09:45:47;;;;;;;4.38;1.98;;;;;;;19.52;45.12;102241.41;5021556;28;20037;-73
2023/04/30 09:48:14;;;;;;;4.72;1.80;;;;;;;19.52;45.10;102243.19;5020877;28;20033;-71
2023/04/30 09:50:40;;;;;;;4.65;1.95;;;;;;;19.52;45.10;102244.03;5020675;28;20029;-72
2023/04/30 09:53:07;;;;;;;7.05;2.40;;;;;;;19.49;45.17;102232.81;5021596;28;20041;-71
2023/04/30 09:55:35;;;;;;;4.28;2.08;;;;;;;19.48;45.09;102239.88;5021920;28;20033;-74
2023/04/30 09:58:03;;;;;;;4.85;2.00;;;;;;;19.48;45.05;102245.16;5020847;28;20040;-71
2023/04/30 10:00:30;;;;;;;5.28;1.92;;;;;;;19.47;45.00;102238.22;5019651;28;20401;-71
2023/04/30 10:02:58;;;;;;;3.10;1.70;;;;;;;19.43;45.16;102231.41;5020873;28;20471;-71
2023/04/30 10:05:24;;;;;;;6.75;2.20;;;;;;;19.45;44.93;102236.59;5020448;28;20116;-70
2023/04/30 10:07:49;;;;;;;6.85;1.95;;;;;;;19.44;45.15;102232.25;5020720;28;20159;-69
2023/04/30 10:10:15;;;;;;;4.18;1.98;;;;;;;19.42;44.96;102229.69;5020703;28;20030;-70
2023/04/30 10:12:50;;;;;;;4.18;1.77;;;;;;;19.43;45.22;102239.34;5021051;28;20490;-70
2023/04/30 10:15:23;;;;;;;5.57;1.90;;;;;;;19.43;45.05;102227.94;5019973;28;20025;-70
2023/04/30 10:17:56;;;;;;;6.65;1.83;;;;;;;19.41;45.12;102228.03;5022626;28;20041;-70
2023/04/30 10:20:25;;;;;;;6.22;1.90;;;;;;;19.42;45.26;102224.41;5023136;28;20037;-72
2023/04/30 10:22:51;;;;;;;5.35;2.08;;;;;;;19.35;45.32;102218.69;5021782;28;20045;-69
2023/04/30 10:25:17;;;;;;;6.07;2.00;;;;;;;19.38;45.51;102215.84;5023759;28;20129;-75
2023/04/30 10:27:42;;;;;;;6.85;2.42;;;;;;;19.38;45.39;102215.00;5023490;28;20369;-74
2023/04/30 10:30:09;;;;;;;6.45;1.98;;;;;;;19.34;45.48;102208.22;5022885;28;20033;-73
2023/04/30 10:32:47;;;;;;;4.32;2.00;;;;;;;19.28;45.55;102216.53;5023678;28;20390;-73
2023/04/30 10:35:23;;;;;;;5.90;1.92;;;;;;;19.34;45.23;102217.00;5022577;28;20039;-69
2023/04/30 10:37:58;;;;;;;4.05;1.75;;;;;;;19.37;45.27;102208.00;5022408;28;20045;-71
2023/04/30 10:40:27;;;;;;;5.90;1.90;;;;;;;19.39;45.32;102203.47;5022995;28;20026;-74
2023/04/30 10:42:53;;;;;;;4.45;2.10;;;;;;;19.40;45.40;102194.59;5022968;28;20068;-74
2023/04/30 10:45:34;;;;;;;6.30;1.90;;;;;;;19.44;45.46;102200.53;5022969;28;20025;-71
2023/04/30 10:48:04;;;;;;;6.15;2.08;;;;;;;19.46;45.47;102194.19;5022505;28;20037;-71
2023/04/30 10:50:30;;;;;;;4.22;1.90;;;;;;;19.53;45.35;102198.13;5021112;28;20879;-71
2023/04/30 10:53:02;;;;;;;4.95;1.67;;;;;;;19.60;45.41;102197.72;5022010;28;20042;-65
2023/04/30 10:55:29;;;;;;;4.78;2.00;;;;;;;19.64;45.71;102184.19;5021744;28;20065;-72
2023/04/30 10:57:56;;;;;;;4.53;2.13;;;;;;;19.64;46.05;102180.72;5022068;28;20041;-75
2023/04/30 11:00:27;;;;;;;7.70;2.00;;;;;;;19.67;46.16;102185.78;5019677;28;20025;-74
2023/04/30 11:03:01;;;;;;;5.60;1.85;;;;;;;19.67;46.37;102181.34;5023225;28;20509;-71
2023/04/30 11:05:38;;;;;;;9.13;2.03;;;;;;;19.67;46.13;102176.06;5020931;28;20501;-73
2023/04/30 11:08:03;;;;;;;4.38;1.80;;;;;;;19.68;46.22;102172.47;5020660;28;20391;-72
2023/04/30 11:10:35;;;;;;;3.00;1.50;;;;;;;19.66;46.38;102173.50;5022148;28;20040;-71
2023/04/30 11:13:06;;;;;;;4.70;1.85;;;;;;;19.62;46.31;102166.75;5022764;28;20105;-72
2023/04/30 11:15:40;;;;;;;6.65;2.38;;;;;;;19.63;46.15;102164.00;5022379;28;20033;-73
2023/04/30 11:18:07;;;;;;;5.18;1.90;;;;;;;19.63;46.27;102163.13;5021920;28;20119;-72
2023/04/30 11:20:32;;;;;;;5.05;1.80;;;;;;;19.60;46.15;102155.41;5020538;28;20048;-71
2023/04/30 11:23:14;;;;;;;5.25;1.90;;;;;;;19.57;46.45;102157.31;5021826;28;20049;-71
2023/04/30 11:25:42;;;;;;;4.43;1.75;;;;;;;19.57;46.54;102153.84;5021888;28;20069;-71